createdAt,value
2019-02-28T00:16:45.760Z,7.20
2019-02-28T00:46:49.472Z,7.30
2019-02-28T01:16:53.688Z,7.30
2019-02-28T01:46:57.533Z,7.00
2019-02-28T02:17:01.954Z,6.90
2019-02-28T02:47:05.733Z,6.60
2019-02-28T03:17:11.549Z,6.40
2019-02-28T03:47:14.853Z,5.60
2019-02-28T04:17:18.567Z,5.10
2019-02-28T04:47:22.278Z,5.50
2019-02-28T05:17:26.553Z,6.90
2019-02-28T05:47:32.385Z,7.50
2019-02-28T06:17:35.717Z,7.80
2019-02-28T06:47:39.456Z,7.80
2019-02-28T07:17:46.268Z,8.20
2019-02-28T07:47:51.762Z,8.90
2019-02-28T08:17:54.217Z,10.30
2019-02-28T08:47:57.929Z,11.00
2019-02-28T09:18:01.645Z,11.40
2019-02-28T09:48:05.384Z,12.00
2019-02-28T10:18:09.129Z,12.40
2019-02-28T10:48:12.862Z,12.90
2019-02-28T11:18:17.242Z,13.50
2019-02-28T11:48:24.007Z,14.30
2019-02-28T12:18:27.722Z,15.10
2019-02-28T12:48:31.471Z,15.30
2019-02-28T13:18:35.213Z,14.90
2019-02-28T13:48:38.897Z,15.40
2019-02-28T14:18:45.356Z,16.10
2019-02-28T14:48:48.513Z,15.50
2019-02-28T15:18:52.213Z,14.60
2019-02-28T15:48:55.896Z,13.90
2019-02-28T16:18:59.710Z,13.30
2019-02-28T16:49:07.319Z,12.70
2019-02-28T17:19:09.911Z,12.20
2019-02-28T17:49:31.657Z,11.60
2019-02-28T18:19:51.114Z,11.20
2019-02-28T18:49:56.337Z,10.80
2019-02-28T19:20:00.289Z,10.40
2019-02-28T19:50:04.422Z,10.00
2019-02-28T20:20:17.039Z,9.60
2019-02-28T20:50:26.802Z,9.20
2019-02-28T21:20:30.525Z,8.70
2019-02-28T21:50:34.247Z,8.80
2019-02-28T22:20:38.334Z,8.20
2019-02-28T22:50:42.067Z,7.60
2019-02-28T23:20:45.797Z,7.70
2019-02-28T23:50:49.554Z,7.80
